Time;durP1;ratioP1;P1;durP2;ratioP2;P2;SDS_P1;SDS_P2;PMS_P1;PMS_P2;Temp;Humidity;BMP_temperature;BMP_pressure;BME280_temperature;BME280_humidity;BME280_pressure;Samples;Min_cycle;Max_cycle;Signal;HPM_P1;HPM_P2
2022/12/21 00:01:59;;;;;;;28.90;25.90;;;23.90;66.20;;;;;;6303933;27;87543;-65
2022/12/21 00:05:01;;;;;;;28.30;25.40;;;23.90;66.30;;;;;;6303825;27;89454;-65
2022/12/21 00:08:05;;;;;;;29.15;26.15;;;23.90;66.30;;;;;;6303310;27;88667;-65
2022/12/21 00:11:07;;;;;;;31.30;26.88;;;23.90;66.30;;;;;;6301866;27;90095;-65
2022/12/21 00:14:09;;;;;;;27.40;24.52;;;23.90;66.30;;;;;;6300654;27;89157;-65
2022/12/21 00:17:11;;;;;;;28.10;25.10;;;23.90;66.30;;;;;;6299922;27;89462;-64
2022/12/21 00:20:14;;;;;;;27.92;25.00;;;23.90;66.30;;;;;;6304176;27;89031;-65
2022/12/21 00:23:17;;;;;;;27.77;24.88;;;23.90;66.40;;;;;;6302394;27;89161;-65
2022/12/21 00:26:21;;;;;;;28.25;25.23;;;23.90;66.40;;;;;;6303578;27;89367;-65
2022/12/21 00:29:23;;;;;;;28.05;25.02;;;23.90;66.40;;;;;;6302925;27;89454;-65
2022/12/21 00:32:25;;;;;;;27.80;24.90;;;23.80;66.40;;;;;;6307804;27;88307;-65
2022/12/21 00:35:28;;;;;;;27.65;24.75;;;23.90;66.40;;;;;;6307113;27;88898;-64
2022/12/21 00:38:32;;;;;;;27.25;24.35;;;23.90;66.40;;;;;;6307645;27;89478;-65
2022/12/21 00:41:34;;;;;;;26.90;24.10;;;23.90;66.30;;;;;;6296680;27;89956;-65
2022/12/21 00:44:36;;;;;;;27.48;24.50;;;23.90;66.30;;;;;;6308297;27;87975;-65
2022/12/21 00:47:38;;;;;;;28.20;24.75;;;23.90;66.30;;;;;;6306158;27;87961;-65
2022/12/21 00:50:40;;;;;;;26.35;23.55;;;23.80;66.30;;;;;;6296093;27;89041;-65
2022/12/21 00:53:44;;;;;;;27.00;24.20;;;23.80;67.20;;;;;;6298458;27;89351;-65
2022/12/21 00:56:46;;;;;;;26.23;23.45;;;23.80;66.30;;;;;;6299970;27;89410;-65
2022/12/21 00:59:48;;;;;;;26.40;23.60;;;23.80;66.30;;;;;;6296530;27;89195;-65
2022/12/21 01:02:50;;;;;;;25.42;22.67;;;23.90;66.40;;;;;;6292789;27;88327;-65
2022/12/21 01:05:54;;;;;;;25.90;23.10;;;23.80;66.20;;;;;;6296676;27;89086;-65
2022/12/21 01:08:57;;;;;;;25.10;22.52;;;23.80;66.20;;;;;;6297119;27;89346;-65
2022/12/21 01:11:59;;;;;;;24.95;22.33;;;23.80;66.20;;;;;;6306453;27;90030;-65
2022/12/21 01:15:01;;;;;;;24.98;22.35;;;23.90;66.20;;;;;;6292707;27;89070;-65
2022/12/21 01:18:04;;;;;;;24.92;22.23;;;23.90;66.20;;;;;;6298755;27;89567;-65
2022/12/21 01:21:06;;;;;;;25.05;22.35;;;23.80;66.20;;;;;;6308026;27;89506;-65
2022/12/21 01:24:13;;;;;;;25.10;21.88;;;23.80;66.20;;;;;;6309217;27;89147;-65
2022/12/21 01:27:15;;;;;;;23.92;21.42;;;23.80;66.20;;;;;;6306234;27;89038;-64
2022/12/21 01:30:17;;;;;;;24.38;21.77;;;23.80;66.20;;;;;;6306740;27;88992;-64
2022/12/21 01:33:20;;;;;;;25.23;22.52;;;23.80;66.20;;;;;;6299758;27;87274;-65
2022/12/21 01:36:23;;;;;;;22.88;20.48;;;23.80;66.20;;;;;;6306555;27;89138;-64
2022/12/21 01:39:29;;;;;;;23.88;21.27;;;23.80;66.20;;;;;;6296417;27;89160;-65
2022/12/21 01:42:31;;;;;;;23.35;20.95;;;23.80;66.20;;;;;;6293948;27;90102;-65
2022/12/21 01:45:35;;;;;;;23.58;20.95;;;23.80;66.20;;;;;;6304901;27;89585;-65
2022/12/21 01:48:43;;;;;;;23.55;21.00;;;23.80;66.20;;;;;;6307178;27;89165;-65
2022/12/21 01:51:50;;;;;;;23.50;21.05;;;23.80;66.20;;;;;;6295251;27;89058;-64
2022/12/21 01:54:57;;;;;;;22.55;20.15;;;23.80;66.20;;;;;;6299594;27;89144;-63
2022/12/21 01:58:01;;;;;;;23.00;20.40;;;23.80;66.20;;;;;;6291279;27;89057;-64
2022/12/21 02:01:04;;;;;;;22.25;19.95;;;23.80;66.30;;;;;;6293365;27;89217;-63
2022/12/21 02:04:08;;;;;;;21.40;19.23;;;23.80;66.20;;;;;;6307333;27;88392;-64
2022/12/21 02:07:10;;;;;;;22.10;19.60;;;23.80;66.30;;;;;;6292695;27;89066;-64
2022/12/21 02:10:14;;;;;;;22.08;19.67;;;23.80;66.40;;;;;;6288580;27;89216;-64
2022/12/21 02:13:16;;;;;;;21.40;19.10;;;23.80;66.30;;;;;;6303713;27;90124;-63
2022/12/21 02:16:30;;;;;;;23.23;20.23;;;23.80;66.20;;;;;;6295776;27;89147;-63
2022/12/21 02:20:04;;;;;;;22.25;19.85;;;23.80;66.20;;;;;;6293571;27;87946;-64
2022/12/21 02:23:41;;;;;;;20.50;18.30;;;23.80;66.20;;;;;;6296987;27;89004;-64
2022/12/21 02:27:20;;;;;;;21.02;18.73;;;23.70;66.20;;;;;;6300299;27;89182;-64
2022/12/21 02:30:24;;;;;;;20.63;18.52;;;23.80;66.20;;;;;;6277733;27;89232;-64
2022/12/21 02:33:42;;;;;;;21.13;18.80;;;23.70;66.20;;;;;;6300272;27;89046;-64
2022/12/21 02:36:51;;;;;;;20.70;18.50;;;23.70;66.20;;;;;;6299655;27;88457;-64
2022/12/21 02:40:00;;;;;;;19.60;17.50;;;23.80;66.20;;;;;;6295450;27;89022;-64
2022/12/21 02:46:33;;;;;;;20.25;18.05;;;23.80;66.20;;;;;;6290219;27;87983;-64
2022/12/21 02:49:42;;;;;;;19.35;17.35;;;23.70;66.20;;;;;;6300697;27;89421;-64
2022/12/21 02:52:51;;;;;;;20.48;17.83;;;23.70;66.20;;;;;;6300997;27;89078;-64
2022/12/21 02:55:53;;;;;;;21.23;18.42;;;23.80;66.30;;;;;;6300560;27;89162;-63
2022/12/21 02:58:56;;;;;;;20.33;17.90;;;23.80;65.90;;;;;;6292904;27;87973;-64
2022/12/21 03:02:47;;;;;;;19.05;17.05;;;23.70;64.20;;;;;;6294584;27;89024;-64
2022/12/21 03:06:11;;;;;;;19.88;17.70;;;23.70;64.40;;;;;;6300787;27;89035;-64
2022/12/21 03:09:22;;;;;;;19.05;17.05;;;23.70;65.00;;;;;;6305020;27;88509;-63
2022/12/21 03:12:37;;;;;;;19.05;16.48;;;23.70;65.20;;;;;;6292168;27;87937;-64
2022/12/21 03:15:47;;;;;;;18.90;16.35;;;23.70;65.30;;;;;;6283435;27;88109;-63
2022/12/21 03:18:58;;;;;;;18.75;16.38;;;23.80;65.50;;;;;;6283139;27;89993;-64
2022/12/21 03:22:07;;;;;;;17.73;15.80;;;23.70;65.40;;;;;;6301091;27;89056;-63
2022/12/21 03:25:15;;;;;;;18.20;16.30;;;23.70;65.50;;;;;;6283970;27;89414;-64
2022/12/21 03:28:22;;;;;;;18.42;16.52;;;23.70;65.50;;;;;;6289573;27;89215;-63
2022/12/21 03:31:29;;;;;;;18.10;16.20;;;23.70;65.50;;;;;;6301517;27;89167;-64
2022/12/21 03:34:36;;;;;;;17.75;15.75;;;23.70;65.50;;;;;;6295034;27;88943;-64
2022/12/21 03:37:41;;;;;;;16.88;15.07;;;23.70;65.60;;;;;;6305345;27;88988;-64
2022/12/21 03:40:46;;;;;;;19.02;15.88;;;23.70;66.60;;;;;;6286418;27;88596;-64
2022/12/21 03:43:52;;;;;;;17.25;15.45;;;23.70;65.70;;;;;;6293427;27;89392;-64
2022/12/21 03:46:57;;;;;;;17.85;15.95;;;23.70;65.70;;;;;;6289139;27;88894;-63
2022/12/21 03:50:05;;;;;;;17.08;15.27;;;23.70;65.70;;;;;;6293532;27;90046;-64
2022/12/21 03:53:20;;;;;;;17.10;15.15;;;23.70;65.70;;;;;;6298280;27;88977;-64
2022/12/21 03:56:28;;;;;;;16.90;15.15;;;23.70;65.70;;;;;;6301053;27;89097;-64
2022/12/21 03:59:30;;;;;;;17.10;15.30;;;23.70;65.70;;;;;;6289305;27;89275;-64
2022/12/21 04:02:38;;;;;;;17.02;15.23;;;23.70;65.70;;;;;;6301880;27;89159;-63
2022/12/21 04:05:45;;;;;;;17.40;15.55;;;23.70;65.70;;;;;;6292859;27;89117;-64
2022/12/21 04:08:49;;;;;;;17.98;15.73;;;23.80;65.80;;;;;;6291298;27;88943;-63
2022/12/21 04:15:13;;;;;;;17.20;15.35;;;23.80;65.70;;;;;;6297868;27;89467;-64
2022/12/21 04:19:57;;;;;;;17.52;15.63;;;23.80;65.70;;;;;;6278957;27;89421;-64
2022/12/21 04:21:37;;;;;;;17.73;15.82;;;23.80;65.70;;;;;;6298433;27;90124;-63
2022/12/21 04:28:09;;;;;;;17.52;15.63;;;23.80;65.70;;;;;;6300217;27;87419;-63
2022/12/21 04:31:11;;;;;;;17.95;16.05;;;23.80;65.60;;;;;;6297634;27;89078;-64
2022/12/21 04:34:13;;;;;;;17.08;15.27;;;23.90;65.70;;;;;;6298399;27;89103;-63
2022/12/21 04:37:35;;;;;;;17.00;15.20;;;23.90;65.70;;;;;;6288828;27;88238;-63
2022/12/21 04:40:38;;;;;;;17.52;15.73;;;23.90;65.70;;;;;;6300333;27;87949;-63
2022/12/21 04:43:41;;;;;;;17.27;15.48;;;23.80;65.50;;;;;;6296894;27;86985;-64
2022/12/21 04:46:43;;;;;;;16.75;14.95;;;23.90;65.70;;;;;;6297867;27;89098;-64
2022/12/21 04:49:45;;;;;;;17.48;15.55;;;23.90;65.60;;;;;;6292904;27;89175;-63
2022/12/21 04:52:47;;;;;;;17.45;15.50;;;23.90;65.70;;;;;;6287671;27;90032;-63
2022/12/21 04:55:51;;;;;;;16.58;14.77;;;23.90;65.60;;;;;;6299770;27;89395;-63
2022/12/21 04:58:53;;;;;;;16.63;14.93;;;23.90;65.70;;;;;;6303530;27;89209;-64
2022/12/21 05:01:55;;;;;;;16.88;15.07;;;23.90;65.70;;;;;;6297495;27;89204;-63
2022/12/21 05:04:57;;;;;;;16.35;14.65;;;23.90;65.70;;;;;;6304669;27;89029;-64
2022/12/21 05:07:59;;;;;;;16.38;14.68;;;23.90;65.70;;;;;;6301972;27;88966;-64
2022/12/21 05:11:10;;;;;;;17.23;15.43;;;23.90;65.70;;;;;;6290747;27;90141;-64
2022/12/21 05:14:12;;;;;;;16.25;14.48;;;23.90;65.70;;;;;;6290686;27;88705;-63
2022/12/21 05:17:14;;;;;;;16.65;14.93;;;23.90;65.60;;;;;;6299657;27;89108;-63
2022/12/21 05:20:16;;;;;;;17.45;15.65;;;23.90;65.60;;;;;;6293579;27;89000;-64
2022/12/21 05:23:18;;;;;;;15.85;14.13;;;23.90;65.60;;;;;;6283804;27;90015;-64
2022/12/21 05:26:22;;;;;;;16.23;14.52;;;23.90;65.60;;;;;;6308267;27;89287;-64
2022/12/21 05:29:24;;;;;;;16.25;14.55;;;23.90;65.60;;;;;;6305301;27;88023;-64
2022/12/21 05:32:26;;;;;;;17.63;15.40;;;23.90;65.70;;;;;;6297089;27;89018;-64
2022/12/21 05:35:28;;;;;;;16.55;14.85;;;23.90;65.50;;;;;;6308491;27;89559;-63
2022/12/21 05:38:30;;;;;;;16.30;14.60;;;23.90;65.60;;;;;;6308600;27;89930;-63
2022/12/21 05:41:33;;;;;;;16.38;14.68;;;23.90;65.50;;;;;;6307198;27;89010;-63
2022/12/21 05:44:36;;;;;;;16.00;14.30;;;23.90;65.50;;;;;;6307647;27;88240;-63
2022/12/21 05:47:38;;;;;;;16.02;14.35;;;23.90;65.60;;;;;;6303042;27;89060;-63
2022/12/21 05:50:40;;;;;;;15.80;14.20;;;23.90;65.60;;;;;;6293376;27;89223;-65
2022/12/21 05:53:45;;;;;;;16.63;14.85;;;23.90;65.50;;;;;;6303996;27;89981;-64
2022/12/21 05:56:48;;;;;;;16.13;14.45;;;23.90;66.00;;;;;;6300151;27;88922;-64
2022/12/21 05:59:50;;;;;;;16.15;14.45;;;23.90;67.00;;;;;;6300895;27;88988;-64
2022/12/21 06:02:53;;;;;;;15.50;13.93;;;23.90;66.50;;;;;;6306085;27;92210;-63
2022/12/21 06:06:00;;;;;;;16.45;14.57;;;23.90;66.10;;;;;;6306402;27;89298;-63
2022/12/21 06:09:02;;;;;;;16.17;14.25;;;24.00;66.30;;;;;;6307007;27;89491;-63
2022/12/21 06:12:07;;;;;;;15.25;13.65;;;24.00;66.10;;;;;;6307554;27;89080;-63
2022/12/21 06:15:10;;;;;;;15.73;13.55;;;24.00;66.10;;;;;;6306876;27;88344;-63
2022/12/21 06:18:12;;;;;;;14.73;13.15;;;24.00;66.00;;;;;;6305214;27;89154;-63
2022/12/21 06:21:15;;;;;;;14.73;12.77;;;24.00;65.90;;;;;;6305351;27;88927;-63
2022/12/21 06:24:17;;;;;;;16.35;13.80;;;24.00;65.90;;;;;;6303693;27;88903;-64
2022/12/21 06:27:20;;;;;;;15.55;13.55;;;24.00;65.90;;;;;;6306098;27;89302;-64
2022/12/21 06:30:22;;;;;;;15.52;13.70;;;24.10;65.90;;;;;;6307198;27;87928;-63
2022/12/21 06:33:24;;;;;;;15.68;14.00;;;24.00;65.80;;;;;;6295284;27;89067;-64
2022/12/21 06:36:27;;;;;;;14.45;12.95;;;24.10;65.80;;;;;;6302961;27;89298;-63
2022/12/21 06:39:29;;;;;;;15.23;13.52;;;24.00;65.80;;;;;;6305939;27;89010;-64
2022/12/21 06:42:32;;;;;;;15.15;13.20;;;24.10;65.90;;;;;;6298503;27;89005;-64
2022/12/21 06:45:34;;;;;;;15.50;13.02;;;24.00;65.80;;;;;;6306935;27;88513;-64
2022/12/21 06:48:37;;;;;;;17.00;13.80;;;24.00;65.80;;;;;;6292115;27;89062;-64
2022/12/21 06:51:39;;;;;;;14.27;12.45;;;24.00;65.70;;;;;;6293787;27;87921;-64
2022/12/21 06:54:41;;;;;;;15.38;12.80;;;24.00;65.80;;;;;;6298670;27;89884;-64
2022/12/21 06:57:45;;;;;;;14.80;13.02;;;24.00;65.80;;;;;;6300547;27;89077;-64
2022/12/21 07:00:49;;;;;;;14.65;12.85;;;24.00;65.70;;;;;;6306741;27;89013;-63
2022/12/21 07:03:51;;;;;;;15.55;13.13;;;24.00;65.70;;;;;;6290115;27;89070;-64
2022/12/21 07:06:53;;;;;;;16.90;13.90;;;24.00;65.70;;;;;;6298818;27;89076;-64
2022/12/21 07:09:55;;;;;;;14.60;13.10;;;24.00;65.70;;;;;;6305332;27;89016;-64
2022/12/21 07:12:59;;;;;;;15.18;12.88;;;24.00;65.70;;;;;;6305003;27;89011;-64
2022/12/21 07:16:01;;;;;;;14.55;12.93;;;24.00;65.70;;;;;;6293271;27;88334;-63
2022/12/21 07:19:03;;;;;;;14.25;12.75;;;24.00;65.70;;;;;;6280367;27;89022;-64
2022/12/21 07:22:05;;;;;;;13.50;12.10;;;24.00;65.70;;;;;;6299176;27;89138;-64
2022/12/21 07:25:07;;;;;;;14.43;12.85;;;24.00;65.70;;;;;;6304802;27;90019;-63
2022/12/21 07:28:11;;;;;;;13.98;12.48;;;24.00;65.80;;;;;;6305196;27;88998;-63
2022/12/21 07:31:15;;;;;;;13.98;12.05;;;24.00;65.80;;;;;;6300169;27;88899;-63
2022/12/21 07:34:17;;;;;;;13.77;12.35;;;24.00;65.80;;;;;;6297985;27;89052;-64
2022/12/21 07:37:19;;;;;;;14.18;12.63;;;24.00;65.70;;;;;;6303207;27;89115;-63
2022/12/21 07:40:21;;;;;;;14.35;12.48;;;24.00;65.80;;;;;;6286206;27;89149;-64
2022/12/21 07:43:25;;;;;;;13.43;11.98;;;24.00;65.70;;;;;;6281775;27;89063;-63
2022/12/21 07:46:27;;;;;;;13.98;12.07;;;24.00;65.80;;;;;;6305246;27;88858;-64
2022/12/21 07:49:29;;;;;;;13.18;11.77;;;24.00;65.70;;;;;;6284012;27;87995;-64
2022/12/21 07:52:32;;;;;;;13.82;12.10;;;24.00;65.70;;;;;;6298548;27;89465;-63
2022/12/21 07:55:34;;;;;;;13.82;12.35;;;24.00;65.80;;;;;;6302478;27;90245;-64
2022/12/21 07:58:37;;;;;;;12.88;11.48;;;24.00;65.70;;;;;;6304258;27;89144;-63
2022/12/21 08:01:40;;;;;;;12.95;11.48;;;24.00;65.80;;;;;;6304759;27;89323;-63
2022/12/21 08:04:42;;;;;;;14.35;12.77;;;23.90;65.80;;;;;;6304817;27;88983;-63
2022/12/21 08:07:44;;;;;;;13.75;12.25;;;23.90;65.80;;;;;;6302317;27;89071;-64
2022/12/21 08:10:46;;;;;;;14.95;11.90;;;23.90;65.90;;;;;;6297922;27;89022;-64
2022/12/21 08:13:50;;;;;;;13.57;11.77;;;23.90;66.10;;;;;;6297479;27;89018;-64
2022/12/21 08:16:52;;;;;;;13.75;11.98;;;23.90;66.10;;;;;;6303672;27;88398;-63
2022/12/21 08:19:54;;;;;;;13.18;11.60;;;23.80;66.10;;;;;;6295451;27;89338;-64
2022/12/21 08:22:56;;;;;;;13.48;11.73;;;23.80;66.10;;;;;;6292987;27;89055;-64
2022/12/21 08:26:01;;;;;;;12.52;11.23;;;23.80;66.10;;;;;;6300270;27;90296;-64
2022/12/21 08:29:05;;;;;;;13.07;11.50;;;23.80;66.10;;;;;;6293843;27;88978;-63
2022/12/21 08:32:07;;;;;;;12.10;10.88;;;23.70;66.10;;;;;;6294315;27;89488;-64
2022/12/21 08:35:10;;;;;;;12.75;11.38;;;23.80;66.10;;;;;;6291955;27;89329;-64
2022/12/21 08:38:12;;;;;;;12.98;11.35;;;23.80;66.10;;;;;;6298558;27;89114;-63
2022/12/21 08:41:14;;;;;;;13.10;11.32;;;23.80;66.20;;;;;;6300639;27;89216;-64
2022/12/21 08:44:18;;;;;;;12.82;11.35;;;23.80;66.20;;;;;;6299992;27;87966;-64
2022/12/21 08:47:20;;;;;;;12.27;10.98;;;23.80;66.20;;;;;;6296561;27;87951;-63
2022/12/21 08:50:22;;;;;;;14.63;11.82;;;23.80;66.10;;;;;;6302960;27;89557;-63
2022/12/21 08:53:24;;;;;;;12.48;11.15;;;23.80;66.10;;;;;;6308738;27;89004;-64
2022/12/21 08:56:26;;;;;;;11.88;10.65;;;23.80;66.10;;;;;;6306996;27;90085;-64
2022/12/21 08:59:30;;;;;;;13.40;11.18;;;23.90;66.10;;;;;;6303465;27;87966;-64
2022/12/21 09:02:33;;;;;;;12.38;11.07;;;23.90;66.10;;;;;;6303277;27;89053;-63
2022/12/21 09:05:36;;;;;;;12.25;10.95;;;23.90;66.00;;;;;;6308060;27;89143;-64
2022/12/21 09:08:39;;;;;;;12.25;10.77;;;23.80;66.00;;;;;;6307513;27;89098;-63
2022/12/21 09:11:41;;;;;;;12.43;10.73;;;23.90;66.00;;;;;;6306979;27;90699;-64
2022/12/21 09:14:44;;;;;;;13.45;11.27;;;23.90;65.90;;;;;;6294433;27;87947;-63
2022/12/21 09:17:46;;;;;;;13.10;11.23;;;23.90;65.90;;;;;;6308067;27;87515;-63
2022/12/21 09:20:48;;;;;;;12.50;10.68;;;23.90;66.10;;;;;;6295950;27;88009;-64
2022/12/21 09:23:51;;;;;;;11.93;10.65;;;23.90;65.90;;;;;;6306894;27;88940;-64
2022/12/21 09:26:53;;;;;;;13.05;10.75;;;23.90;65.90;;;;;;6304937;27;90574;-64
2022/12/21 09:29:57;;;;;;;12.40;10.65;;;23.90;65.90;;;;;;6291240;27;89158;-63
2022/12/21 09:32:59;;;;;;;12.18;10.70;;;23.90;65.90;;;;;;6287204;27;89053;-63
2022/12/21 09:36:01;;;;;;;11.95;10.60;;;23.90;65.80;;;;;;6305520;27;89025;-63
2022/12/21 09:39:03;;;;;;;13.60;11.13;;;23.90;65.80;;;;;;6306749;27;88237;-64
2022/12/21 09:42:18;;;;;;;12.43;11.02;;;23.90;65.90;;;;;;6307509;27;89047;-63
2022/12/21 09:45:27;;;;;;;12.48;10.88;;;23.90;65.90;;;;;;6307611;27;89141;-63
2022/12/21 09:48:32;;;;;;;14.05;11.43;;;23.90;65.90;;;;;;6294394;27;88203;-64
2022/12/21 09:51:36;;;;;;;12.23;10.93;;;23.90;65.90;;;;;;6294207;27;87981;-63
2022/12/21 09:54:43;;;;;;;12.90;11.45;;;23.90;65.90;;;;;;6306738;27;88762;-63
2022/12/21 09:57:46;;;;;;;11.82;10.52;;;23.90;65.90;;;;;;6293482;27;90080;-63
2022/12/21 10:00:57;;;;;;;12.02;10.30;;;23.90;65.90;;;;;;6306189;27;90613;-63
2022/12/21 10:04:11;;;;;;;11.75;10.52;;;23.90;65.90;;;;;;6306518;27;89298;-63
2022/12/21 10:07:33;;;;;;;11.65;10.45;;;23.90;65.90;;;;;;6307490;27;89167;-63
2022/12/21 10:10:40;;;;;;;10.60;9.43;;;23.90;65.90;;;;;;6306581;27;89057;-63
2022/12/21 10:13:52;;;;;;;10.68;9.57;;;23.90;65.90;;;;;;6307895;27;89640;-64
2022/12/21 10:17:05;;;;;;;11.32;10.18;;;23.90;65.80;;;;;;6293793;27;89185;-63
2022/12/21 10:20:25;;;;;;;11.60;10.05;;;23.90;65.70;;;;;;6304418;27;88331;-64
2022/12/21 10:23:29;;;;;;;11.73;10.38;;;23.90;66.70;;;;;;6302068;27;89066;-63
2022/12/21 10:26:36;;;;;;;11.38;9.98;;;24.00;65.80;;;;;;6307010;27;89088;-63
2022/12/21 10:29:41;;;;;;;13.18;11.18;;;24.00;65.80;;;;;;6305570;27;90156;-63
2022/12/21 10:32:48;;;;;;;11.05;9.95;;;24.00;65.80;;;;;;6293114;27;89058;-63
2022/12/21 10:35:54;;;;;;;11.32;10.10;;;24.00;65.80;;;;;;6306000;27;88980;-63
2022/12/21 10:38:56;;;;;;;12.68;10.48;;;23.90;65.70;;;;;;6304405;27;89085;-63
2022/12/21 10:42:06;;;;;;;11.65;10.45;;;24.00;65.70;;;;;;6298976;27;87912;-63
2022/12/21 10:45:13;;;;;;;10.98;9.88;;;24.00;65.70;;;;;;6294913;27;89223;-64
2022/12/21 10:48:16;;;;;;;12.45;10.73;;;23.90;65.70;;;;;;6295220;27;89267;-63
2022/12/21 10:51:28;;;;;;;11.95;10.07;;;24.00;65.80;;;;;;6290819;27;88722;-63
2022/12/21 10:54:30;;;;;;;11.38;9.90;;;24.00;65.70;;;;;;6304012;27;89180;-63
2022/12/21 10:57:33;;;;;;;10.45;9.35;;;24.00;65.70;;;;;;6306891;27;87917;-63
2022/12/21 11:00:38;;;;;;;11.40;10.20;;;24.00;65.70;;;;;;6295122;27;90287;-63
2022/12/21 11:03:42;;;;;;;11.18;9.88;;;24.00;65.80;;;;;;6300686;27;89101;-63
2022/12/21 11:06:59;;;;;;;11.13;9.93;;;24.00;65.70;;;;;;6296544;27;89185;-63
2022/12/21 11:10:04;;;;;;;10.80;9.70;;;24.00;65.70;;;;;;6304340;27;89062;-63
2022/12/21 11:13:07;;;;;;;10.90;9.30;;;24.00;65.80;;;;;;6305901;27;89083;-63
2022/12/21 11:16:10;;;;;;;11.52;10.02;;;24.00;65.80;;;;;;6305488;27;89883;-63
2022/12/21 11:19:16;;;;;;;11.93;10.10;;;23.90;65.70;;;;;;6306728;27;89438;-63
2022/12/21 11:22:26;;;;;;;10.73;9.63;;;24.00;65.90;;;;;;6294565;27;89103;-63
2022/12/21 11:25:31;;;;;;;10.52;9.43;;;24.00;65.90;;;;;;6302403;27;89068;-62
2022/12/21 11:28:33;;;;;;;10.35;9.25;;;24.00;65.90;;;;;;6306751;27;89068;-63
2022/12/21 11:31:36;;;;;;;10.40;9.15;;;23.90;65.90;;;;;;6303057;27;90538;-63
2022/12/21 11:34:41;;;;;;;11.55;9.57;;;24.00;65.90;;;;;;6290898;27;90643;-63
2022/12/21 11:37:45;;;;;;;11.40;9.63;;;24.00;65.90;;;;;;6298685;27;89143;-63
2022/12/21 11:40:56;;;;;;;11.18;9.98;;;23.90;65.90;;;;;;6297430;27;90017;-63
2022/12/21 11:43:58;;;;;;;11.80;10.10;;;24.00;65.90;;;;;;6296744;27;89041;-63
2022/12/21 11:47:21;;;;;;;10.90;9.45;;;24.00;65.90;;;;;;6305274;27;88133;-62
2022/12/21 11:50:44;;;;;;;11.85;9.82;;;23.90;65.90;;;;;;6282547;27;89175;-63
2022/12/21 11:54:09;;;;;;;10.63;9.52;;;24.00;66.00;;;;;;6281796;27;88375;-63
2022/12/21 11:57:26;;;;;;;11.35;9.77;;;24.00;66.00;;;;;;6295848;27;89841;-63
2022/12/21 12:00:32;;;;;;;10.45;9.32;;;24.00;66.00;;;;;;6295360;27;90477;-63
2022/12/21 12:03:45;;;;;;;10.50;8.93;;;24.00;65.90;;;;;;6304496;27;89964;-63
2022/12/21 12:07:14;;;;;;;9.98;8.98;;;24.00;66.00;;;;;;6289187;27;89152;-63
2022/12/21 12:10:37;;;;;;;10.30;9.18;;;24.00;65.90;;;;;;6298643;27;89132;-63
2022/12/21 12:13:57;;;;;;;10.00;8.95;;;24.00;66.00;;;;;;6292822;27;89088;-63
2022/12/21 12:17:07;;;;;;;10.60;9.45;;;24.00;66.00;;;;;;6284143;27;89139;-63
2022/12/21 12:20:22;;;;;;;10.68;9.48;;;24.00;66.00;;;;;;6301044;27;88131;-64
2022/12/21 12:23:35;;;;;;;10.60;9.25;;;24.00;66.00;;;;;;6292103;27;88011;-63
2022/12/21 12:26:49;;;;;;;10.55;9.43;;;24.00;65.90;;;;;;6298989;27;88390;-63
2022/12/21 12:30:05;;;;;;;11.82;9.95;;;24.00;65.90;;;;;;6296488;27;88086;-63
2022/12/21 12:33:13;;;;;;;9.95;8.93;;;24.00;66.00;;;;;;6298316;27;89040;-63
2022/12/21 12:36:28;;;;;;;10.70;9.55;;;24.00;66.00;;;;;;6290861;27;90064;-63
2022/12/21 12:39:41;;;;;;;9.80;8.75;;;24.00;66.10;;;;;;6291452;27;89287;-63
2022/12/21 12:42:51;;;;;;;10.63;9.52;;;24.00;66.10;;;;;;6303714;27;89040;-63
2022/12/21 12:46:04;;;;;;;10.60;9.50;;;24.00;66.00;;;;;;6299369;27;89115;-63
2022/12/21 12:49:18;;;;;;;10.32;8.93;;;24.00;66.10;;;;;;6300545;27;89376;-63
2022/12/21 12:52:35;;;;;;;10.40;9.30;;;23.90;66.00;;;;;;6288114;27;89286;-63
2022/12/21 12:55:49;;;;;;;10.57;9.35;;;24.00;66.10;;;;;;6301541;27;88981;-63
2022/12/21 12:58:59;;;;;;;10.13;9.02;;;24.00;66.10;;;;;;6299643;27;88353;-63
2022/12/21 13:02:07;;;;;;;10.68;9.13;;;24.00;66.10;;;;;;6292253;27;89188;-63
2022/12/21 13:05:32;;;;;;;9.88;8.80;;;24.00;66.10;;;;;;6305030;27;89046;-63
2022/12/21 13:08:47;;;;;;;9.57;8.57;;;24.00;66.10;;;;;;6290662;27;90031;-63
2022/12/21 13:12:00;;;;;;;10.73;9.32;;;24.00;66.10;;;;;;6304332;27;89231;-63
2022/12/21 13:15:09;;;;;;;10.60;9.50;;;24.00;66.10;;;;;;6303992;27;89404;-63
2022/12/21 13:18:14;;;;;;;10.20;9.10;;;24.00;66.10;;;;;;6297478;27;89101;-63
2022/12/21 13:21:18;;;;;;;10.38;9.23;;;24.00;66.10;;;;;;6295653;27;89012;-63
2022/12/21 13:24:24;;;;;;;9.80;8.80;;;24.10;66.20;;;;;;6304457;27;88751;-63
2022/12/21 13:27:31;;;;;;;9.93;8.93;;;24.00;66.10;;;;;;6304542;27;89144;-63
2022/12/21 13:30:37;;;;;;;10.13;9.07;;;24.00;66.20;;;;;;6291247;27;88386;-63
2022/12/21 13:33:45;;;;;;;9.80;8.80;;;24.00;66.20;;;;;;6301809;27;89506;-63
2022/12/21 13:36:48;;;;;;;10.27;9.20;;;24.00;66.20;;;;;;6304074;27;89117;-63
2022/12/21 13:39:59;;;;;;;9.80;8.68;;;24.00;66.20;;;;;;6304292;27;89973;-63
2022/12/21 13:43:11;;;;;;;10.10;9.00;;;24.00;66.20;;;;;;6303776;27;91464;-63
2022/12/21 13:46:15;;;;;;;10.60;9.40;;;24.00;66.20;;;;;;6302191;27;89033;-63
2022/12/21 13:49:28;;;;;;;9.85;8.85;;;24.00;66.20;;;;;;6302677;27;89020;-63
2022/12/21 13:52:38;;;;;;;9.70;8.70;;;24.00;66.20;;;;;;6307526;27;89628;-63
2022/12/21 13:55:48;;;;;;;10.07;9.00;;;24.00;66.20;;;;;;6306683;27;89035;-63
2022/12/21 13:58:57;;;;;;;10.15;8.60;;;24.00;66.20;;;;;;6293222;27;89124;-63
2022/12/21 14:02:07;;;;;;;10.23;9.05;;;24.00;66.20;;;;;;6293262;27;87169;-63
2022/12/21 14:05:15;;;;;;;11.40;9.48;;;24.00;66.20;;;;;;6306858;27;89109;-63
2022/12/21 14:08:43;;;;;;;10.52;9.15;;;24.00;66.20;;;;;;6306309;27;89155;-63
2022/12/21 14:12:12;;;;;;;10.15;8.82;;;24.00;66.20;;;;;;6303777;27;90004;-63
2022/12/21 14:15:29;;;;;;;10.02;9.00;;;24.00;66.20;;;;;;6301135;27;89090;-63
2022/12/21 14:18:33;;;;;;;10.00;8.90;;;24.00;66.20;;;;;;6301925;27;89530;-63
2022/12/21 14:21:35;;;;;;;11.05;9.38;;;24.00;66.20;;;;;;6297829;27;89240;-63
2022/12/21 14:24:37;;;;;;;10.20;9.07;;;24.00;66.20;;;;;;6296115;27;89195;-63
2022/12/21 14:27:40;;;;;;;9.98;8.98;;;24.00;66.20;;;;;;6308977;27;87971;-63
2022/12/21 14:30:52;;;;;;;9.85;8.85;;;24.00;66.20;;;;;;6306853;27;89427;-63
2022/12/21 14:33:56;;;;;;;9.85;8.77;;;24.00;66.20;;;;;;6296788;27;88388;-63
2022/12/21 14:37:21;;;;;;;9.73;8.73;;;24.00;66.30;;;;;;6306572;27;89381;-63
2022/12/21 14:40:26;;;;;;;10.18;8.88;;;24.00;66.20;;;;;;6299178;27;89019;-63
2022/12/21 14:43:28;;;;;;;10.18;9.07;;;24.00;66.20;;;;;;6298136;27;90464;-63
2022/12/21 14:46:31;;;;;;;10.30;9.00;;;24.00;66.30;;;;;;6299223;27;89021;-63
2022/12/21 14:49:35;;;;;;;9.57;8.48;;;24.00;66.20;;;;;;6301952;27;88982;-63
2022/12/21 14:52:55;;;;;;;9.80;8.77;;;24.00;66.30;;;;;;6302731;27;89120;-63
2022/12/21 14:56:05;;;;;;;9.68;8.48;;;24.00;66.30;;;;;;6296959;27;89133;-63
2022/12/21 14:59:12;;;;;;;9.90;8.68;;;24.00;66.30;;;;;;6303408;27;89079;-63
2022/12/21 15:02:24;;;;;;;10.57;9.48;;;24.00;66.30;;;;;;6306002;27;89093;-63
2022/12/21 15:05:32;;;;;;;10.07;8.95;;;24.00;66.30;;;;;;6305552;27;88280;-63
2022/12/21 15:08:39;;;;;;;10.10;8.73;;;24.00;66.30;;;;;;6306131;27;89060;-63
2022/12/21 15:11:43;;;;;;;9.75;8.75;;;24.00;66.40;;;;;;6306427;27;89231;-63
2022/12/21 15:14:53;;;;;;;10.30;9.20;;;24.00;66.40;;;;;;6305856;27;90106;-63
2022/12/21 15:17:59;;;;;;;10.93;9.20;;;24.00;66.40;;;;;;6303047;27;89145;-63
2022/12/21 15:21:34;;;;;;;10.13;9.13;;;24.00;66.40;;;;;;6302458;27;89129;-63
2022/12/21 15:24:37;;;;;;;10.57;9.23;;;24.00;66.40;;;;;;6295321;27;89115;-63
2022/12/21 15:27:43;;;;;;;10.73;9.15;;;24.00;66.30;;;;;;6305276;27;89138;-63
2022/12/21 15:30:50;;;;;;;10.02;9.02;;;24.00;66.30;;;;;;6293829;27;88976;-63
2022/12/21 15:33:55;;;;;;;10.45;9.30;;;24.00;66.30;;;;;;6303135;27;88781;-64
2022/12/21 15:37:01;;;;;;;10.10;9.00;;;24.00;66.30;;;;;;6306172;27;87234;-63
2022/12/21 15:40:07;;;;;;;10.68;8.68;;;24.00;66.20;;;;;;6294751;27;89104;-63
2022/12/21 15:43:17;;;;;;;9.80;8.80;;;24.00;66.30;;;;;;6305659;27;89089;-63
2022/12/21 15:46:34;;;;;;;9.40;8.48;;;24.00;67.20;;;;;;6305600;27;90069;-64
2022/12/21 15:49:41;;;;;;;9.93;8.93;;;24.00;66.30;;;;;;6304706;27;89201;-63
2022/12/21 15:52:53;;;;;;;9.70;8.57;;;24.00;66.30;;;;;;6293238;27;89010;-63
2022/12/21 15:55:59;;;;;;;10.50;8.88;;;24.00;66.20;;;;;;6305033;27;89024;-63
2022/12/21 15:59:01;;;;;;;10.10;9.10;;;24.00;66.20;;;;;;6294650;27;88997;-63
2022/12/21 16:02:09;;;;;;;9.90;8.77;;;24.00;66.30;;;;;;6291581;27;91105;-63